KASE/ASE METAR and TAF weather

Enter ICAO airport designator
Station Type Date Time Source
KASE METAR 2021/06/22 23:53 UTC NOAA

KASE 222353Z 34010G19KT 10SM CLR 29/M04 A3013 RMK AO2 SLP065 T02891039 10306 20278 58010


Station Type Date Time Source
KASE Decoded METAR 2021/06/22 23:53 UTC NOAA

ASPEN-PITKIN COUNTY AIRPORT, CO, United States (KASE) 39-14N 106-52W 2354M
Jun 22, 2021 - 07:53 PM EDT / 2021.06.22 2353 UTC
Wind: from the NNW (340 degrees) at 12 MPH (10 KT) gusting to 22 MPH (19 KT):0
Visibility: 10 mile(s):0
Sky conditions: clear
Temperature: 84.0 F (28.9 C)
Dew Point: 25.0 F (-3.9 C)
Relative Humidity: 11%
Pressure (altimeter): 30.13 in. Hg (1020 hPa)
Pressure tendency: 0.03 inches (1.0 hPa) lower than three hours ago
ob: KASE 222353Z 34010G19KT 10SM CLR 29/M04 A3013 RMK AO2 SLP065 T02891039 10306 20278 58010
cycle: 0

Station Type Date Time Source
KASE TAF 2021/06/22 18:33 UTC NOAA

TAF KASE 221730Z 2218/2318 33012G18KT P6SM FEW120
FM230200 26007KT P6SM FEW150 FEW200
FM230400 20006KT P6SM FEW180
FM231500 36006KT P6SM FEW150

Example: see airport list